x

Buzzards Bay, Ma (buzm3) Weather Station

5:00 - Sun 19th Feb 2017 All times are EST. -5 hours from GMT.

  • Wind
    17mph
  • Luft Temp 43°f
  • Sea Pressure 1005.4mb
  • Buzzards Bay, Ma
  • Buzzards Bay, Ma

More Historic Weather Station data

Upgrade to MSW Pro to gain access to the past 30 days of data for over 8000 Wavebouys and Weather Stations around the globe.

Join Pro

Comparision Forecast

View Surf forecast
   
So 02/19 5:00 17
mph
1005.4mb 43f
4:00 21
mph
1004.3mb 44f
3:00 21 22 mph 1003.4mb 43f
2:00 20 21 mph 1003.2mb 43f
1:00 17
mph
1002.9mb 43f
12:00 23 24 mph 1002.7mb 44f
Sa 02/18 11:00 23 24 mph 1002.8mb 44f
10:00 28 29 mph 1002.9mb 44f
9:00 25 28 mph 1003.4mb 44f
8:00 25 26 mph 1003.7mb 43f
7:00 24 25 mph 1003.6mb 43f
6:00 24 26 mph 1003.6mb 43f
5:00 21 23 mph 1004mb 43f
4:00 15
mph
1004.4mb 42f
3:00 17 18 mph 1004.9mb 42f
2:00 18 20 mph 1006.2mb 42f
1:00 25 26 mph 1007.2mb 42f
12:00 20 22 mph 1008.5mb 41f
11:00 22 23 mph 1009.4mb 40f
10:00 18 20 mph 1010.3mb 39f
9:00 13
mph
1011.1mb 38f
8:00 14 15 mph 1011.5mb 37f
7:00 10 13 mph 1011.6mb 35f
6:00 17 18 mph 1011.1mb 34f
5:00 9 10 mph 1011.4mb 33f
4:00 7 8 mph 1011.4mb 33f
3:00 21 23 mph 1011.9mb 33f
2:00 22 24 mph 1011.7mb 33f
1:00 18 21 mph 1011.3mb 33f
12:00 21 22 mph 1010.8mb 34f
Fr 02/17 11:00 18 20 mph 1010.5mb 34f
10:00 21 23 mph 1010mb 35f
9:00 20 22 mph 1009.5mb 35f
8:00 23 25 mph 1009.2mb 36f
7:00 18 21 mph 1008.5mb 37f
6:00 18 20 mph 1007.8mb 38f
5:00 18 20 mph 1006.9mb 39f
4:00 15
mph
1006.2mb 39f
3:00 17 20 mph 1006.1mb 38f
2:00 16 17 mph 1006.1mb 36f
1:00 18 20 mph 1006.1mb 35f
12:00 18 24 mph 1006.3mb 33f
11:00 18 21 mph 1006.9mb 32f
10:00 21 24 mph 1006.9mb 30f
9:00 25 29 mph 1006.7mb 29f
8:00 26 30 mph 1006.6mb 28f
7:00 31 32 mph 1006.3mb 27f
6:00 26 30 mph 1006mb 27f
5:00 24 29 mph 1005.7mb 26f
4:00 30 34 mph 1004.9mb 26f
3:00 24 26 mph 1004.8mb 27f
2:00 26 31 mph 1004.8mb 27f
1:00 28 33 mph 1004.3mb 27f
12:00 31 34 mph 1004mb 28f
Do 02/16 11:00 28 32 mph 1003.5mb 29f
10:00 32 37 mph 1003.1mb 30f
9:00 29 33 mph 1002.5mb 31f
8:00 26 30 mph 1001.8mb 32f
7:00 28 32 mph 1001mb 33f
6:00 29 31 mph 999.8mb 34f
5:00 25 26 mph 998.6mb 34f
4:00 25 28 mph 997.7mb 35f
3:00 24 28 mph 997mb 36f
2:00 20 22 mph 996.8mb 36f
1:00 21 23 mph 996.9mb 35f
12:00 20 23 mph 997.1mb 35f
11:00 23 25 mph 997.2mb 35f
10:00 21 22 mph 996.8mb 34f
9:00 21 24 mph 996.4mb 34f
8:00 25 26 mph 995.6mb 34f
7:00 26 29 mph 994.6mb 34f
6:00 25 29 mph 993.9mb 34f
5:00 26 29 mph 993.1mb 34f
4:00 30 36 mph 992.3mb 35f
3:00 34 39 mph 991.2mb 35f
2:00 30 33 mph 991.1mb 36f
1:00 25 30 mph 990.7mb 36f
12:00 28 31 mph 990.3mb 37f
Mi 02/15 11:00 24 28 mph 989.7mb 37f
10:00 21 23 mph 989.9mb 37f
9:00 16 17 mph 989.9mb 38f
8:00 14 15 mph 990.1mb 37f
7:00 14 16 mph 990.2mb 39f
6:00 18 20 mph 990mb 38f
5:00 22 23 mph 990.5mb 39f
4:00 21 22 mph 991.1mb 38f
3:00 14 15 mph 993mb 39f
2:00 21 23 mph 994.2mb 40f
1:00 20 22 mph 995.8mb 42f
12:00 16 17 mph 997.3mb 40f